createdAt,value
2017-07-12T00:00:36.753Z,80.48
2017-07-12T00:03:02.617Z,80.42
2017-07-12T00:05:28.497Z,80.18
2017-07-12T00:07:54.378Z,80.72
2017-07-12T00:10:20.276Z,80.89
2017-07-12T00:12:46.213Z,80.10
2017-07-12T00:15:12.129Z,80.87
2017-07-12T00:17:37.996Z,81.17
2017-07-12T00:20:03.871Z,80.62
2017-07-12T00:22:29.858Z,80.20
2017-07-12T00:24:55.697Z,80.01
2017-07-12T00:27:21.658Z,79.59
2017-07-12T00:29:47.545Z,79.79
2017-07-12T00:34:55.314Z,79.57
2017-07-12T00:37:21.169Z,79.64
2017-07-12T00:39:47.114Z,79.79
2017-07-12T00:42:12.990Z,79.40
2017-07-12T00:44:38.984Z,79.35
2017-07-12T00:47:04.849Z,79.99
2017-07-12T00:49:30.723Z,79.99
2017-07-12T00:51:56.607Z,79.54
2017-07-12T00:54:22.470Z,79.55
2017-07-12T00:56:48.389Z,79.44
2017-07-12T00:59:14.261Z,79.77
2017-07-12T01:01:40.107Z,80.37
2017-07-12T01:04:05.982Z,80.32
2017-07-12T01:06:31.821Z,79.67
2017-07-12T01:08:57.767Z,79.58
2017-07-12T01:11:23.606Z,79.44
2017-07-12T01:13:49.507Z,79.53
2017-07-12T01:16:15.409Z,79.55
2017-07-12T01:18:41.249Z,79.96
2017-07-12T01:21:07.101Z,80.12
2017-07-12T01:23:33.181Z,79.07
2017-07-12T01:25:59.097Z,79.38
2017-07-12T01:28:24.937Z,79.29
2017-07-12T01:30:50.821Z,80.05
2017-07-12T01:33:16.760Z,80.27
2017-07-12T01:35:42.632Z,79.92
2017-07-12T01:38:08.473Z,79.90
2017-07-12T01:40:34.290Z,79.59
2017-07-12T01:43:00.261Z,80.35
2017-07-12T01:45:26.171Z,80.98
2017-07-12T01:47:52.086Z,81.15
2017-07-12T01:50:17.900Z,79.86
2017-07-12T01:52:43.774Z,79.93
2017-07-12T01:55:09.799Z,79.51
2017-07-12T01:57:35.657Z,79.71
2017-07-12T02:00:01.568Z,80.01
2017-07-12T02:02:27.429Z,80.14
2017-07-12T02:04:53.287Z,79.85
2017-07-12T02:07:19.303Z,79.87
2017-07-12T02:09:45.128Z,80.11
2017-07-12T02:12:10.976Z,80.40
2017-07-12T02:14:36.917Z,79.93
2017-07-12T02:17:02.752Z,80.18
2017-07-12T02:19:28.637Z,80.35
2017-07-12T02:21:54.632Z,80.38
2017-07-12T02:24:20.462Z,80.47
2017-07-12T02:26:46.448Z,80.97
2017-07-12T02:29:12.487Z,80.99
2017-07-12T02:31:38.326Z,81.20
2017-07-12T02:34:04.280Z,81.22
2017-07-12T02:36:30.129Z,80.44
2017-07-12T02:38:56.000Z,81.58
2017-07-12T02:41:21.929Z,81.63
2017-07-12T02:43:47.755Z,81.26
2017-07-12T02:46:13.625Z,81.06
2017-07-12T02:48:39.476Z,81.22
2017-07-12T02:51:05.480Z,81.15
2017-07-12T02:53:31.334Z,81.24
2017-07-12T02:55:57.242Z,80.93
2017-07-12T02:58:23.069Z,81.17
2017-07-12T03:00:48.944Z,81.37
2017-07-12T03:03:14.780Z,81.67
2017-07-12T03:05:40.634Z,81.47
2017-07-12T03:08:06.605Z,81.61
2017-07-12T03:10:32.445Z,81.77
2017-07-12T03:12:58.396Z,81.91
2017-07-12T03:15:24.272Z,82.13
2017-07-12T03:17:50.096Z,81.37
2017-07-12T03:20:15.946Z,81.43
2017-07-12T03:22:41.912Z,82.12
2017-07-12T03:25:07.749Z,82.08
2017-07-12T03:27:33.641Z,82.02
2017-07-12T03:29:59.522Z,82.67
2017-07-12T03:32:25.327Z,81.96
2017-07-12T03:34:51.185Z,81.75
2017-07-12T03:37:16.978Z,80.71
2017-07-12T03:39:54.041Z,81.15
2017-07-12T03:42:19.854Z,80.70
2017-07-12T03:44:45.719Z,81.22
2017-07-12T03:47:11.951Z,80.02
2017-07-12T03:49:37.750Z,81.06
2017-07-12T03:52:03.549Z,81.32
2017-07-12T03:54:29.423Z,81.42
2017-07-12T03:56:55.253Z,81.39
2017-07-12T03:59:21.078Z,81.25
2017-07-12T04:01:46.950Z,81.33
2017-07-12T04:04:12.855Z,81.42
2017-07-12T04:06:38.681Z,81.40
2017-07-12T04:09:04.462Z,81.48
2017-07-12T04:11:30.393Z,81.86
2017-07-12T04:13:56.342Z,81.68
2017-07-12T04:16:22.255Z,81.26
2017-07-12T04:18:48.182Z,81.67
2017-07-12T04:21:14.062Z,81.60
2017-07-12T04:23:39.906Z,81.51
2017-07-12T04:26:05.691Z,80.90
2017-07-12T04:28:31.477Z,81.51
2017-07-12T04:30:57.310Z,81.73
2017-07-12T04:33:23.089Z,81.65
2017-07-12T04:35:48.983Z,81.90
2017-07-12T04:38:14.821Z,82.09
2017-07-12T04:40:40.731Z,81.44
2017-07-12T04:43:06.662Z,81.26
2017-07-12T04:45:32.562Z,81.18
2017-07-12T04:47:58.523Z,80.56
2017-07-12T04:50:24.411Z,81.12
2017-07-12T04:52:50.307Z,80.37
2017-07-12T04:55:16.164Z,80.45
2017-07-12T04:57:42.107Z,80.10
2017-07-12T05:00:07.948Z,79.60
2017-07-12T05:02:33.738Z,79.87
2017-07-12T05:04:59.525Z,80.47
2017-07-12T05:07:25.379Z,79.88
2017-07-12T05:09:51.180Z,79.86
2017-07-12T05:12:17.030Z,79.88
2017-07-12T05:14:42.846Z,79.51
2017-07-12T05:17:08.682Z,78.77
2017-07-12T05:19:34.532Z,78.99
2017-07-12T05:22:00.576Z,78.79
2017-07-12T05:24:26.497Z,78.43
2017-07-12T05:26:52.340Z,78.14
2017-07-12T05:29:18.226Z,78.16
2017-07-12T05:31:44.038Z,78.87
2017-07-12T05:34:09.846Z,78.55
2017-07-12T05:36:35.693Z,78.16
2017-07-12T05:39:01.605Z,78.52
2017-07-12T05:41:27.411Z,77.94
2017-07-12T05:43:53.254Z,77.75
2017-07-12T05:46:19.106Z,76.96
2017-07-12T05:48:44.894Z,77.14
2017-07-12T05:51:10.697Z,77.46
2017-07-12T05:53:37.359Z,77.43
2017-07-12T05:56:03.150Z,77.32
2017-07-12T05:58:29.070Z,77.53
2017-07-12T06:00:55.118Z,77.58
2017-07-12T06:03:20.921Z,77.41
2017-07-12T06:05:46.766Z,77.30
2017-07-12T06:08:12.601Z,76.84
2017-07-12T06:10:38.560Z,76.47
2017-07-12T06:13:04.422Z,76.11
2017-07-12T06:15:30.297Z,75.85
2017-07-12T06:17:56.137Z,74.78
2017-07-12T06:20:22.227Z,74.44
2017-07-12T06:22:48.034Z,74.03
2017-07-12T06:25:13.880Z,73.62
2017-07-12T06:27:39.726Z,72.85
2017-07-12T06:30:05.935Z,72.83
2017-07-12T06:32:31.939Z,72.17
2017-07-12T06:34:57.738Z,71.70
2017-07-12T06:37:23.563Z,71.49
2017-07-12T06:39:49.367Z,70.75
2017-07-12T06:42:15.201Z,71.22
2017-07-12T06:44:41.000Z,71.36
2017-07-12T06:47:06.842Z,70.63
2017-07-12T06:49:32.689Z,71.05
2017-07-12T06:51:58.501Z,70.86
2017-07-12T06:54:24.334Z,70.65
2017-07-12T06:56:51.150Z,68.83
2017-07-12T06:59:16.942Z,69.79
2017-07-12T07:01:43.555Z,70.03
2017-07-12T07:04:09.386Z,70.52
2017-07-12T07:06:35.178Z,70.54
2017-07-12T07:09:01.110Z,71.01
2017-07-12T07:11:27.007Z,70.69
2017-07-12T07:13:52.869Z,71.50
2017-07-12T07:16:18.765Z,71.68
2017-07-12T07:18:44.689Z,71.76
2017-07-12T07:21:10.473Z,71.85
2017-07-12T07:23:36.378Z,71.52
2017-07-12T07:26:02.211Z,70.92
2017-07-12T07:28:28.030Z,71.90
2017-07-12T07:30:54.053Z,71.44
2017-07-12T07:33:19.911Z,71.17
2017-07-12T07:35:45.810Z,71.22
2017-07-12T07:38:11.698Z,71.15
2017-07-12T07:40:37.542Z,70.49
2017-07-12T07:43:03.338Z,69.06
2017-07-12T07:45:29.191Z,67.69
2017-07-12T07:47:55.047Z,66.41
2017-07-12T07:50:20.961Z,65.73
2017-07-12T07:52:46.746Z,66.70
2017-07-12T07:55:12.554Z,65.87
2017-07-12T07:57:45.268Z,65.29
2017-07-12T08:00:11.160Z,64.30
2017-07-12T08:02:37.000Z,64.35
2017-07-12T08:05:02.808Z,64.61
2017-07-12T08:07:28.644Z,64.79
2017-07-12T08:09:54.518Z,64.29
2017-07-12T08:12:20.319Z,65.38
2017-07-12T08:14:46.199Z,64.66
2017-07-12T08:17:12.087Z,64.62
2017-07-12T08:19:37.978Z,63.75
2017-07-12T08:22:03.826Z,63.80
2017-07-12T08:24:29.630Z,64.19
2017-07-12T08:26:55.491Z,62.51
2017-07-12T08:29:21.405Z,62.49
2017-07-12T08:31:47.217Z,62.64
2017-07-12T08:34:13.158Z,62.35
2017-07-12T08:36:39.151Z,60.53
2017-07-12T08:39:05.137Z,59.00
2017-07-12T08:41:31.017Z,58.32
2017-07-12T08:43:56.923Z,56.96
2017-07-12T08:46:22.830Z,57.39
2017-07-12T08:48:48.676Z,57.36
2017-07-12T08:51:14.641Z,57.64
2017-07-12T08:53:40.485Z,56.55
2017-07-12T08:56:07.277Z,55.14
2017-07-12T08:58:33.125Z,56.25
2017-07-12T09:00:58.910Z,54.17
2017-07-12T09:03:24.690Z,54.82
2017-07-12T09:05:50.542Z,54.47
2017-07-12T09:08:16.359Z,54.77
2017-07-12T09:10:42.281Z,52.18
2017-07-12T09:13:08.182Z,52.57
2017-07-12T09:15:34.010Z,53.07
2017-07-12T09:17:59.864Z,53.72
2017-07-12T09:20:25.747Z,54.27
2017-07-12T09:22:51.648Z,54.63
2017-07-12T09:35:00.755Z,58.17
2017-07-12T09:37:26.655Z,59.19
2017-07-12T09:39:52.528Z,59.94
2017-07-12T09:42:18.427Z,60.61
2017-07-12T09:44:45.062Z,61.17
2017-07-12T09:47:10.903Z,61.18
2017-07-12T09:49:36.746Z,62.02
2017-07-12T09:52:02.603Z,61.71
2017-07-12T09:54:28.423Z,62.05
2017-07-12T09:56:54.234Z,62.00
2017-07-12T09:59:20.263Z,62.33
2017-07-12T10:01:46.122Z,61.63
2017-07-12T10:04:12.010Z,61.93
2017-07-12T10:06:37.867Z,62.29
2017-07-12T10:09:03.717Z,64.78
2017-07-12T10:11:29.526Z,64.37
2017-07-12T10:13:55.375Z,64.18
2017-07-12T10:16:21.404Z,63.82
2017-07-12T10:18:47.242Z,63.81
2017-07-12T10:21:13.084Z,63.65
2017-07-12T10:23:38.967Z,63.65
2017-07-12T10:26:04.913Z,63.85
2017-07-12T10:28:30.829Z,64.14
2017-07-12T10:30:56.643Z,64.15
2017-07-12T10:33:22.486Z,63.55
2017-07-12T10:35:48.354Z,63.41
2017-07-12T10:38:14.193Z,63.85
2017-07-12T10:40:40.179Z,62.76
2017-07-12T10:43:05.988Z,62.97
2017-07-12T10:45:31.840Z,63.60
2017-07-12T10:47:57.636Z,64.22
2017-07-12T10:50:23.474Z,64.83
2017-07-12T10:52:49.311Z,65.92
2017-07-12T10:55:15.232Z,66.00
2017-07-12T10:57:41.035Z,66.74
2017-07-12T11:00:06.922Z,70.22
2017-07-12T11:02:32.718Z,73.41
2017-07-12T11:04:58.514Z,75.88
2017-07-12T11:07:24.346Z,74.95
2017-07-12T11:09:50.174Z,74.22
2017-07-12T11:12:15.978Z,73.87
2017-07-12T11:14:41.844Z,72.86
2017-07-12T11:17:07.637Z,70.59
2017-07-12T11:19:33.472Z,70.91
2017-07-12T11:21:59.302Z,69.82
2017-07-12T11:24:25.119Z,70.21
2017-07-12T11:26:50.966Z,70.86
2017-07-12T11:29:16.966Z,69.76
2017-07-12T11:31:42.769Z,69.88
2017-07-12T11:34:08.602Z,69.19
2017-07-12T11:36:34.435Z,69.30
2017-07-12T11:39:00.446Z,70.83
2017-07-12T11:41:26.300Z,71.42
2017-07-12T11:43:52.186Z,70.01
2017-07-12T11:46:18.102Z,69.22
2017-07-12T11:48:59.031Z,70.21
2017-07-12T11:51:24.893Z,70.89
2017-07-12T11:53:50.714Z,71.96
2017-07-12T11:56:16.526Z,73.99
2017-07-12T11:58:42.351Z,78.63
2017-07-12T12:01:08.246Z,81.03
2017-07-12T12:03:34.102Z,82.44
2017-07-12T12:05:59.940Z,82.28
2017-07-12T12:08:25.789Z,83.14
2017-07-12T12:10:51.654Z,82.34
2017-07-12T12:13:17.473Z,82.00
2017-07-12T12:15:43.537Z,83.56
2017-07-12T12:18:09.535Z,83.31
2017-07-12T12:20:35.353Z,82.71
2017-07-12T12:23:01.185Z,83.79
2017-07-12T12:25:27.182Z,83.55
2017-07-12T12:27:53.201Z,83.18
2017-07-12T12:30:19.041Z,83.39
2017-07-12T12:32:44.830Z,83.47
2017-07-12T12:35:10.858Z,83.08
2017-07-12T12:37:36.926Z,81.78
2017-07-12T12:40:02.903Z,80.88
2017-07-12T12:42:28.750Z,82.35
2017-07-12T12:44:54.630Z,79.65
2017-07-12T12:47:20.507Z,78.78
2017-07-12T12:49:46.452Z,79.09
2017-07-12T12:52:12.371Z,79.79
2017-07-12T12:54:38.208Z,79.85
2017-07-12T12:57:04.051Z,78.12
2017-07-12T12:59:29.889Z,77.04
2017-07-12T13:01:55.680Z,79.95
2017-07-12T13:04:27.474Z,77.29
2017-07-12T13:06:53.511Z,75.97
2017-07-12T13:09:19.410Z,72.99
2017-07-12T13:11:45.217Z,73.61
2017-07-12T13:14:11.080Z,72.87
2017-07-12T13:16:36.904Z,72.63
2017-07-12T13:19:02.754Z,73.22
2017-07-12T13:21:28.578Z,71.85
2017-07-12T13:23:54.404Z,71.98
2017-07-12T13:26:20.226Z,72.92
2017-07-12T13:28:46.057Z,72.80
2017-07-12T13:31:12.951Z,74.03
2017-07-12T13:33:38.834Z,74.90
2017-07-12T13:36:04.728Z,75.52
2017-07-12T13:38:30.846Z,75.02
2017-07-12T13:40:56.669Z,77.42
2017-07-12T13:43:22.592Z,78.27
2017-07-12T13:45:48.418Z,77.98
2017-07-12T13:48:14.263Z,79.02
2017-07-12T13:50:40.170Z,79.45
2017-07-12T13:53:05.999Z,78.87
2017-07-12T13:55:31.844Z,79.46
2017-07-12T13:57:57.638Z,81.80
2017-07-12T14:00:23.452Z,81.31
2017-07-12T14:02:49.387Z,81.39
2017-07-12T14:05:15.315Z,80.94
2017-07-12T14:07:41.189Z,77.59
2017-07-12T14:10:07.034Z,77.91
2017-07-12T14:12:33.017Z,77.70
2017-07-12T14:14:58.932Z,76.88
2017-07-12T14:17:24.847Z,74.19
2017-07-12T14:19:50.725Z,72.59
2017-07-12T14:22:16.649Z,70.54
2017-07-12T14:24:42.529Z,69.24
2017-07-12T14:27:08.555Z,68.36
2017-07-12T14:29:34.825Z,65.56
2017-07-12T14:32:00.834Z,64.49
2017-07-12T14:34:26.740Z,63.58
2017-07-12T14:36:52.585Z,62.45
2017-07-12T14:39:18.451Z,62.61
2017-07-12T14:41:44.274Z,62.86
2017-07-12T14:44:10.101Z,62.50
2017-07-12T14:46:35.963Z,59.96
2017-07-12T14:49:01.790Z,59.55
2017-07-12T14:51:27.602Z,60.37
2017-07-12T14:53:53.599Z,61.15
2017-07-12T14:56:19.447Z,61.38
2017-07-12T14:58:45.440Z,61.17
2017-07-12T15:01:11.272Z,60.55
2017-07-12T15:03:37.218Z,60.50
2017-07-12T15:06:03.093Z,59.67
2017-07-12T15:08:29.107Z,60.00
2017-07-12T15:10:55.174Z,61.72
2017-07-12T15:13:20.990Z,58.90
2017-07-12T15:15:46.906Z,60.38
2017-07-12T15:18:12.761Z,61.67
2017-07-12T15:20:38.607Z,62.11
2017-07-12T15:23:04.471Z,62.90
2017-07-12T15:25:30.374Z,62.22
2017-07-12T15:27:56.184Z,62.89
2017-07-12T15:30:22.081Z,64.16
2017-07-12T15:32:48.117Z,64.06
2017-07-12T15:35:13.943Z,63.76
2017-07-12T15:37:40.175Z,63.32
2017-07-12T15:40:05.993Z,63.78
2017-07-12T15:42:31.788Z,63.70
2017-07-12T15:44:57.686Z,64.37
2017-07-12T15:47:23.477Z,64.79
2017-07-12T15:49:49.295Z,65.49
2017-07-12T15:52:15.122Z,66.71
2017-07-12T15:54:41.054Z,68.23
2017-07-12T15:57:06.900Z,69.51
2017-07-12T15:59:32.767Z,71.71
2017-07-12T16:01:58.596Z,72.96
2017-07-12T16:04:24.741Z,74.89
2017-07-12T16:06:50.601Z,75.62
2017-07-12T16:09:16.410Z,78.31
2017-07-12T16:11:42.268Z,81.39
2017-07-12T16:14:08.094Z,83.28
2017-07-12T16:16:34.113Z,83.46
2017-07-12T16:19:00.020Z,83.32
2017-07-12T16:21:25.869Z,82.00
2017-07-12T16:23:51.781Z,81.25
2017-07-12T16:26:17.617Z,81.32
2017-07-12T16:28:43.583Z,80.24
2017-07-12T16:31:09.442Z,80.72
2017-07-12T16:33:35.408Z,78.78
2017-07-12T16:36:01.222Z,79.30
2017-07-12T16:38:27.072Z,77.43
2017-07-12T16:40:52.968Z,77.34
2017-07-12T16:43:18.827Z,74.97
2017-07-12T16:45:44.754Z,72.76
2017-07-12T16:48:10.706Z,73.52
2017-07-12T16:50:36.519Z,73.40
2017-07-12T16:53:02.357Z,72.24
2017-07-12T16:55:28.207Z,72.63
2017-07-12T16:57:54.021Z,74.44
2017-07-12T17:00:19.851Z,74.12
2017-07-12T17:02:45.707Z,75.30
2017-07-12T17:05:11.601Z,75.31
2017-07-12T17:07:37.412Z,76.06
2017-07-12T17:10:03.265Z,76.25
2017-07-12T17:12:29.066Z,77.19
2017-07-12T17:14:54.979Z,79.87
2017-07-12T17:17:21.001Z,81.90
2017-07-12T17:19:46.922Z,82.98
2017-07-12T17:22:12.827Z,83.37
2017-07-12T17:24:38.663Z,82.53
2017-07-12T17:27:04.579Z,83.19
2017-07-12T17:29:30.370Z,84.46
2017-07-12T17:31:56.214Z,84.62
2017-07-12T17:34:22.027Z,84.60
2017-07-12T17:36:47.929Z,83.02
2017-07-12T17:39:13.773Z,82.23
2017-07-12T17:41:39.708Z,80.90
2017-07-12T17:44:05.555Z,81.65
2017-07-12T17:46:31.346Z,81.67
2017-07-12T17:48:57.162Z,80.79
2017-07-12T17:51:22.991Z,81.57
2017-07-12T17:53:48.900Z,82.29
2017-07-12T17:56:14.728Z,82.23
2017-07-12T17:58:40.631Z,80.62
2017-07-12T18:01:06.447Z,80.17
2017-07-12T18:03:32.305Z,81.34
2017-07-12T18:05:58.119Z,81.77
2017-07-12T18:08:23.974Z,81.48
2017-07-12T18:10:49.815Z,82.25
2017-07-12T18:13:15.642Z,82.26
2017-07-12T18:15:41.597Z,83.30
2017-07-12T18:18:07.409Z,82.65
2017-07-12T18:20:33.193Z,82.70
2017-07-12T18:22:59.018Z,83.79
2017-07-12T18:25:24.822Z,83.28
2017-07-12T18:27:51.038Z,83.01
2017-07-12T18:30:16.878Z,83.21
2017-07-12T18:32:43.521Z,83.28
2017-07-12T18:35:09.372Z,83.56
2017-07-12T18:37:35.208Z,84.73
2017-07-12T18:40:01.018Z,84.26
2017-07-12T18:42:26.874Z,83.81
2017-07-12T18:44:52.686Z,84.22
2017-07-12T18:47:18.505Z,83.22
2017-07-12T18:49:44.369Z,83.40
2017-07-12T18:52:10.354Z,84.38
2017-07-12T18:54:36.161Z,84.64
2017-07-12T18:57:01.981Z,85.19
2017-07-12T18:59:27.786Z,84.88
2017-07-12T19:01:53.589Z,85.12
2017-07-12T19:04:19.479Z,84.60
2017-07-12T19:06:45.458Z,85.25
2017-07-12T19:09:11.257Z,85.08
2017-07-12T19:11:37.109Z,85.70
2017-07-12T19:14:03.118Z,85.28
2017-07-12T19:16:28.966Z,86.17
2017-07-12T19:18:54.817Z,86.04
2017-07-12T19:21:20.802Z,86.29
2017-07-12T19:23:46.597Z,86.79
2017-07-12T19:26:12.456Z,87.37
2017-07-12T19:28:38.461Z,86.09
2017-07-12T19:31:04.254Z,84.80
2017-07-12T19:33:30.131Z,84.08
2017-07-12T19:35:55.958Z,82.66
2017-07-12T19:38:21.880Z,83.05
2017-07-12T19:40:47.809Z,83.20
2017-07-12T19:43:13.707Z,83.79
2017-07-12T19:45:39.578Z,83.24
2017-07-12T19:48:05.393Z,82.60
2017-07-12T19:50:31.229Z,83.57
2017-07-12T19:52:57.112Z,84.24
2017-07-12T19:55:23.025Z,85.03
2017-07-12T19:57:48.921Z,84.87
2017-07-12T20:00:14.853Z,85.00
2017-07-12T20:02:40.762Z,85.33
2017-07-12T20:05:06.717Z,85.30
2017-07-12T20:07:32.605Z,86.39
2017-07-12T20:09:58.594Z,84.44
2017-07-12T20:12:24.460Z,84.82
2017-07-12T20:14:50.797Z,83.92
2017-07-12T20:17:16.648Z,83.03
2017-07-12T20:19:42.533Z,82.73
2017-07-12T20:22:08.539Z,82.56
2017-07-12T20:24:34.468Z,83.20
2017-07-12T20:27:00.375Z,82.98
2017-07-12T20:29:26.340Z,81.67
2017-07-12T20:31:52.189Z,83.03
2017-07-12T20:34:18.064Z,82.08
2017-07-12T20:36:43.973Z,81.90
2017-07-12T20:39:09.812Z,81.67
2017-07-12T20:41:35.686Z,81.79
2017-07-12T20:44:01.528Z,82.26
2017-07-12T20:46:27.397Z,81.70
2017-07-12T20:48:53.308Z,80.46
2017-07-12T20:51:19.236Z,81.17
2017-07-12T20:53:45.130Z,81.04
2017-07-12T20:56:10.980Z,80.80
2017-07-12T20:58:37.086Z,80.12
2017-07-12T21:01:02.987Z,80.03
2017-07-12T21:03:28.856Z,80.85
2017-07-12T21:05:54.714Z,79.93
2017-07-12T21:08:20.725Z,79.34
2017-07-12T21:10:46.736Z,80.07
2017-07-12T21:13:12.773Z,79.81
2017-07-12T21:15:38.696Z,79.89
2017-07-12T21:18:04.668Z,80.28
2017-07-12T21:20:30.693Z,80.07
2017-07-12T21:22:56.616Z,80.32
2017-07-12T21:25:22.487Z,79.81
2017-07-12T21:27:48.425Z,80.33
2017-07-12T21:30:14.273Z,78.67
2017-07-12T21:32:40.141Z,78.47
2017-07-12T21:35:06.084Z,78.13
2017-07-12T21:37:31.970Z,77.97
2017-07-12T21:39:57.815Z,78.24
2017-07-12T21:42:23.741Z,78.39
2017-07-12T21:44:49.621Z,77.77
2017-07-12T21:47:15.488Z,77.80
2017-07-12T21:49:41.508Z,78.41
2017-07-12T21:52:07.421Z,78.21
2017-07-12T21:54:51.729Z,78.24
2017-07-12T21:57:36.052Z,78.43
2017-07-12T22:00:20.577Z,77.92
2017-07-12T22:03:05.019Z,79.63
2017-07-12T22:05:49.279Z,78.71
2017-07-12T22:08:33.617Z,78.95
2017-07-12T22:11:18.016Z,79.64
2017-07-12T22:14:02.453Z,80.15
2017-07-12T22:16:46.721Z,80.02
2017-07-12T22:19:30.935Z,80.21
2017-07-12T22:22:15.403Z,79.88
2017-07-12T22:24:59.676Z,80.49
2017-07-12T22:27:44.111Z,80.14
2017-07-12T22:30:28.411Z,79.60
2017-07-12T22:33:12.817Z,80.12
2017-07-12T22:35:57.016Z,79.42
2017-07-12T22:38:29.024Z,80.11
2017-07-12T22:41:00.895Z,79.26
2017-07-12T22:43:30.684Z,79.60
2017-07-12T22:45:56.600Z,80.00
2017-07-12T22:48:22.423Z,80.17
2017-07-12T22:50:48.257Z,79.52
2017-07-12T22:53:14.212Z,79.64
2017-07-12T22:55:40.045Z,79.00
2017-07-12T22:58:06.859Z,79.62
2017-07-12T23:00:32.907Z,78.39
2017-07-12T23:02:58.762Z,79.24
2017-07-12T23:05:24.765Z,78.96
2017-07-12T23:07:50.814Z,79.76
2017-07-12T23:10:16.689Z,78.31
2017-07-12T23:12:42.562Z,79.52
2017-07-12T23:15:08.389Z,78.51
2017-07-12T23:17:34.332Z,78.85
2017-07-12T23:20:00.155Z,78.67
2017-07-12T23:22:26.029Z,79.37
2017-07-12T23:24:51.960Z,79.27
2017-07-12T23:27:17.813Z,79.62
2017-07-12T23:29:43.669Z,78.83
2017-07-12T23:32:09.510Z,79.25
2017-07-12T23:34:35.494Z,79.50
2017-07-12T23:37:01.347Z,80.04
2017-07-12T23:39:33.276Z,80.23
2017-07-12T23:41:59.190Z,79.88
2017-07-12T23:44:25.093Z,79.80
2017-07-12T23:46:57.849Z,80.30
2017-07-12T23:49:23.741Z,79.71
2017-07-12T23:51:49.616Z,79.34
2017-07-12T23:54:15.515Z,79.73
2017-07-12T23:56:41.461Z,79.20
2017-07-12T23:59:07.348Z,79.32
